Timber Creek, Alabama
Current Conditions -  °F | °C
As of 9:53 PM on Saturday 24 Jan 2015 (Local Time) from KBFM Reporting Station
Clear Clear  
Wind Chill: 40°   Ceiling: Unl
Heat Index: 40°   Visibility: 10mi
Dew Point: 38°   Wind: 3mph
Humidity: 93%   Direction: 240°WSW
Pressure: 30.07"   Gusts: NA
Location:  30.6968°N, 87.8613°W
Report Text: KBFM 250353Z AUTO 24003KT 10SM CLR 04/03 A3007 RMK AO2 SLP182 T00440033
Loading
Personal Weather Stations






























Interactive Weather Map New forecast layout! Learn more

10-Day Weather Forecast

Advertisements
Track Severe Weather on mobile